createdAt,value
2017-05-30T00:00:03.365Z,15
2017-05-30T00:01:05.715Z,10
2017-05-30T00:02:08.454Z,10
2017-05-30T00:03:11.419Z,5
2017-05-30T00:04:16.340Z,5
2017-05-30T00:05:18.717Z,5
2017-05-30T00:06:21.611Z,0
2017-05-30T00:07:23.928Z,0
2017-05-30T00:08:26.829Z,0
2017-05-30T00:09:29.908Z,0
2017-05-30T00:10:32.896Z,0
2017-05-30T00:11:35.483Z,0
2017-05-30T00:12:37.839Z,0
2017-05-30T00:13:40.206Z,0
2017-05-30T00:14:43.173Z,0
2017-05-30T00:15:45.538Z,0
2017-05-30T00:16:47.939Z,0
2017-05-30T00:17:50.393Z,0
2017-05-30T00:18:52.690Z,0
2017-05-30T00:19:57.556Z,0
2017-05-30T00:20:59.842Z,0
2017-05-30T00:22:02.970Z,0
2017-05-30T00:23:05.882Z,0
2017-05-30T00:24:11.938Z,0
2017-05-30T00:25:14.822Z,0
2017-05-30T00:26:17.964Z,0
2017-05-30T00:27:19.721Z,0
2017-05-30T00:28:22.588Z,0
2017-05-30T00:29:24.957Z,0
2017-05-30T00:31:28.715Z,0
2017-05-30T00:32:32.838Z,0
2017-05-30T00:33:35.687Z,0
2017-05-30T00:34:38.073Z,0
2017-05-30T00:35:41.019Z,0
2017-05-30T00:36:43.928Z,0
2017-05-30T00:37:46.287Z,0
2017-05-30T00:38:48.658Z,0
2017-05-30T00:39:51.018Z,0
2017-05-30T00:40:53.408Z,0
2017-05-30T00:41:56.375Z,0
2017-05-30T00:42:58.757Z,0
2017-05-30T14:42:45.549Z,1255
2017-05-30T14:43:47.883Z,930
2017-05-30T14:44:50.550Z,1050
2017-05-30T14:47:04.126Z,1605
2017-05-30T14:48:09.881Z,965
2017-05-30T14:49:12.415Z,895
2017-05-30T14:50:14.955Z,2040
2017-05-30T14:51:17.510Z,1025
2017-05-30T14:52:19.903Z,1055
2017-05-30T14:53:22.916Z,1220
2017-05-30T14:54:25.290Z,1145
2017-05-30T14:55:27.675Z,1400
2017-05-30T14:56:30.056Z,1145
2017-05-30T14:57:32.397Z,1055
2017-05-30T14:58:35.363Z,845
2017-05-30T14:59:37.687Z,850
2017-05-30T15:00:40.095Z,970
2017-05-30T15:01:42.471Z,1055
2017-05-30T15:02:44.823Z,1385
2017-05-30T15:03:47.805Z,1625
2017-05-30T15:04:50.141Z,1055
2017-05-30T15:05:52.530Z,2705
2017-05-30T15:06:54.898Z,975
2017-05-30T15:07:57.274Z,690
2017-05-30T15:09:00.243Z,1540
2017-05-30T15:10:03.025Z,1800
2017-05-30T15:11:05.499Z,1710
2017-05-30T15:12:07.934Z,855
2017-05-30T15:13:10.205Z,970
2017-05-30T15:14:13.446Z,985
2017-05-30T15:15:15.790Z,655
2017-05-30T15:16:18.377Z,715
2017-05-30T15:17:20.746Z,1105
2017-05-30T15:18:23.329Z,905
2017-05-30T15:19:26.402Z,800
2017-05-30T15:20:28.742Z,1290
2017-05-30T15:21:31.075Z,1160
2017-05-30T15:22:33.571Z,980
2017-05-30T15:23:35.811Z,1190
2017-05-30T15:24:38.843Z,1040
2017-05-30T15:25:41.211Z,1465
2017-05-30T15:26:43.595Z,1245
2017-05-30T15:27:45.932Z,1445
2017-05-30T15:28:48.299Z,1205
2017-05-30T15:29:51.237Z,1420
2017-05-30T15:30:53.602Z,1485
2017-05-30T15:31:55.878Z,1050
2017-05-30T15:32:58.376Z,1810
2017-05-30T15:34:00.711Z,1625
2017-05-30T15:35:04.965Z,3010
2017-05-30T15:36:06.512Z,2815
2017-05-30T15:37:09.090Z,1500
2017-05-30T15:38:11.438Z,2680
2017-05-30T15:39:13.845Z,2045
2017-05-30T15:40:16.910Z,1310
2017-05-30T15:41:19.281Z,2535
2017-05-30T15:42:21.612Z,2370
2017-05-30T15:43:24.005Z,900
2017-05-30T15:44:26.375Z,1105
2017-05-30T15:45:29.526Z,1745
2017-05-30T15:46:31.898Z,2830
2017-05-30T15:47:34.283Z,1600
2017-05-30T15:48:36.640Z,1665
2017-05-30T15:49:39.017Z,2150
2017-05-30T15:51:46.564Z,3000
2017-05-30T15:52:49.086Z,2385
2017-05-30T15:53:51.496Z,1700
2017-05-30T15:54:53.877Z,2040
2017-05-30T15:55:56.975Z,4495
2017-05-30T15:56:59.382Z,1620
2017-05-30T15:58:01.738Z,1850
2017-05-30T15:59:04.117Z,1405
2017-05-30T16:00:06.402Z,1530
2017-05-30T16:01:09.615Z,1175
2017-05-30T16:02:11.805Z,915
2017-05-30T16:03:14.366Z,1000
2017-05-30T16:04:16.758Z,1170
2017-05-30T16:05:19.195Z,1305
2017-05-30T16:06:22.136Z,1370
2017-05-30T16:07:24.490Z,1310
2017-05-30T16:08:27.069Z,1050
2017-05-30T16:09:29.455Z,1225
2017-05-30T16:10:31.833Z,1850
2017-05-30T16:11:34.902Z,1690
2017-05-30T16:12:37.278Z,1655
2017-05-30T16:13:40.830Z,1685
2017-05-30T16:14:43.205Z,1835
2017-05-30T16:15:45.573Z,1530
2017-05-30T16:16:48.651Z,1860
2017-05-30T16:17:51.026Z,2235
2017-05-30T16:18:53.372Z,1845
2017-05-30T16:19:55.768Z,1530
2017-05-30T16:20:58.135Z,2720
2017-05-30T16:22:01.111Z,1255
2017-05-30T16:23:03.494Z,1700
2017-05-30T16:24:05.852Z,1690
2017-05-30T16:25:08.236Z,1480
2017-05-30T16:26:10.605Z,1400
2017-05-30T16:27:13.413Z,1565
2017-05-30T16:28:15.878Z,1765
2017-05-30T16:29:18.265Z,1850
2017-05-30T16:30:20.619Z,1155
2017-05-30T16:31:23.010Z,1180
2017-05-30T16:32:26.069Z,1115
2017-05-30T16:33:28.473Z,1450
2017-05-30T16:34:30.812Z,1975
2017-05-30T16:35:33.201Z,3015
2017-05-30T16:36:35.485Z,3110
2017-05-30T16:37:38.694Z,2505
2017-05-30T16:38:41.072Z,2180
2017-05-30T16:39:43.399Z,2105
2017-05-30T16:40:45.807Z,1780
2017-05-30T16:41:48.188Z,945
2017-05-30T16:42:51.097Z,1120
2017-05-30T16:43:53.513Z,1410
2017-05-30T16:44:55.932Z,1220
2017-05-30T16:45:58.307Z,1940
2017-05-30T16:47:00.672Z,1970
2017-05-30T16:48:03.757Z,965
2017-05-30T16:49:06.124Z,1550
2017-05-30T16:50:08.489Z,1130
2017-05-30T16:51:10.851Z,1360
2017-05-30T16:52:13.225Z,1695
2017-05-30T16:53:16.389Z,2440
2017-05-30T16:54:18.697Z,2575
2017-05-30T16:55:21.096Z,2175
2017-05-30T16:56:23.475Z,2180
2017-05-30T16:57:26.047Z,1890
2017-05-30T16:58:28.973Z,1705
2017-05-30T16:59:31.342Z,1835
2017-05-30T17:00:33.748Z,1700
2017-05-30T17:01:36.110Z,2635
2017-05-30T17:02:38.465Z,3090
2017-05-30T17:03:42.647Z,2875
2017-05-30T17:04:45.010Z,3070
2017-05-30T17:05:48.596Z,3015
2017-05-30T17:06:50.957Z,2925
2017-05-30T17:07:53.337Z,3250
2017-05-30T17:08:56.443Z,4050
2017-05-30T17:09:58.814Z,3840
2017-05-30T17:11:01.171Z,965
2017-05-30T17:12:03.562Z,3720
2017-05-30T17:13:05.929Z,3845
2017-05-30T17:14:08.869Z,3470
2017-05-30T17:15:11.341Z,3345
2017-05-30T17:16:13.626Z,2845
2017-05-30T17:17:16.001Z,3810
2017-05-30T17:18:18.268Z,3795
2017-05-30T17:19:21.491Z,1715
2017-05-30T17:20:23.877Z,4310
2017-05-30T17:21:26.221Z,3140
2017-05-30T17:22:28.606Z,3610
2017-05-30T17:23:30.992Z,4240
2017-05-30T17:24:33.937Z,4115
2017-05-30T17:25:36.359Z,3890
2017-05-30T17:26:38.716Z,1550
2017-05-30T17:27:41.086Z,2095
2017-05-30T17:28:43.506Z,4475
2017-05-30T17:29:46.439Z,4680
2017-05-30T17:30:48.817Z,1975
2017-05-30T17:31:51.208Z,1250
2017-05-30T17:32:53.583Z,1435
2017-05-30T17:33:55.945Z,2880
2017-05-30T17:34:58.898Z,1505
2017-05-30T17:36:01.298Z,1335
2017-05-30T17:37:03.665Z,1365
2017-05-30T17:38:06.058Z,2120
2017-05-30T17:39:08.315Z,1940
2017-05-30T17:40:11.402Z,1765
2017-05-30T17:41:13.755Z,1640
2017-05-30T17:42:16.265Z,2010
2017-05-30T17:43:18.506Z,3165
2017-05-30T17:44:20.902Z,2100
2017-05-30T17:45:24.410Z,1710
2017-05-30T17:46:26.766Z,1395
2017-05-30T17:47:29.854Z,1785
2017-05-30T17:48:31.973Z,1795
2017-05-30T17:49:36.080Z,2495
2017-05-30T17:50:39.097Z,1945
2017-05-30T17:51:41.774Z,2370
2017-05-30T17:52:45.105Z,2315
2017-05-30T17:53:47.752Z,2000
2017-05-30T17:54:51.376Z,2110
2017-05-30T17:55:54.251Z,1875
2017-05-30T17:56:57.120Z,2830
2017-05-30T17:57:59.987Z,2720
2017-05-30T17:59:02.857Z,1790
2017-05-30T18:00:06.712Z,1735
2017-05-30T18:01:10.336Z,3165
2017-05-30T18:02:13.209Z,3755
2017-05-30T18:03:16.175Z,2490
2017-05-30T18:04:19.005Z,1945
2017-05-30T18:05:21.979Z,2395
2017-05-30T18:06:25.050Z,2745
2017-05-30T18:07:28.052Z,3705
2017-05-30T18:08:31.488Z,3990
2017-05-30T18:09:34.191Z,3265
2017-05-30T18:10:37.115Z,3810
2017-05-30T18:11:40.341Z,2225
2017-05-30T18:12:42.694Z,2100
2017-05-30T18:13:45.084Z,1810
2017-05-30T18:14:48.096Z,4380
2017-05-30T18:15:50.835Z,4650
2017-05-30T18:16:53.994Z,4525
2017-05-30T18:17:56.548Z,2800
2017-05-30T18:18:58.948Z,3955
2017-05-30T18:20:01.805Z,3155
2017-05-30T18:21:04.679Z,4690
2017-05-30T18:22:07.830Z,1840
2017-05-30T18:23:10.279Z,4935
2017-05-30T18:24:12.635Z,1730
2017-05-30T18:25:15.499Z,2440
2017-05-30T18:26:18.374Z,3690
2017-05-30T18:27:21.362Z,1705
2017-05-30T18:28:23.733Z,3285
2017-05-30T18:29:26.112Z,3145
2017-05-30T18:30:28.495Z,2545
2017-05-30T18:31:30.856Z,2530
2017-05-30T18:32:34.066Z,2500
2017-05-30T18:33:36.272Z,2470
2017-05-30T18:34:38.756Z,1480
2017-05-30T18:35:41.122Z,2455
2017-05-30T18:36:43.557Z,3645
2017-05-30T18:37:46.538Z,2040
2017-05-30T18:38:48.839Z,1470
2017-05-30T18:39:51.301Z,1605
2017-05-30T18:40:53.679Z,1770
2017-05-30T18:41:56.049Z,1485
2017-05-30T18:42:58.933Z,1750
2017-05-30T18:44:01.417Z,3010
2017-05-30T18:45:03.796Z,3915
2017-05-30T18:46:06.157Z,2430
2017-05-30T18:47:08.601Z,2695
2017-05-30T18:48:11.872Z,1885
2017-05-30T18:49:14.381Z,4435
2017-05-30T18:50:16.895Z,1705
2017-05-30T18:51:19.342Z,1295
2017-05-30T18:52:22.123Z,1990
2017-05-30T18:53:25.026Z,1840
2017-05-30T18:54:27.659Z,1935
2017-05-30T18:55:30.184Z,1595
2017-05-30T18:56:32.694Z,1710
2017-05-30T18:57:35.203Z,1610
2017-05-30T18:58:38.332Z,1860
2017-05-30T18:59:40.599Z,2135
2017-05-30T19:00:42.975Z,1385
2017-05-30T19:01:45.248Z,1315
2017-05-30T19:02:47.833Z,1195
2017-05-30T19:03:50.794Z,1465
2017-05-30T19:04:53.204Z,2330
2017-05-30T19:05:55.590Z,2860
2017-05-30T19:06:57.929Z,1765
2017-05-30T19:08:00.345Z,1185
2017-05-30T19:09:03.288Z,1220
2017-05-30T19:10:05.586Z,1335
2017-05-30T19:11:08.035Z,1560
2017-05-30T19:12:10.416Z,1910
2017-05-30T19:13:12.771Z,2335
2017-05-30T19:14:15.760Z,1805
2017-05-30T19:15:18.059Z,1800
2017-05-30T19:16:20.562Z,2380
2017-05-30T19:17:22.961Z,2205
2017-05-30T19:18:25.314Z,3510
2017-05-30T19:19:28.296Z,1535
2017-05-30T19:20:30.645Z,1075
2017-05-30T19:21:33.221Z,875
2017-05-30T19:22:35.633Z,920
2017-05-30T19:23:38.185Z,960
2017-05-30T19:24:41.127Z,1055
2017-05-30T19:25:43.419Z,1450
2017-05-30T19:26:45.969Z,1735
2017-05-30T19:27:48.276Z,1245
2017-05-30T19:28:50.861Z,1330
2017-05-30T19:29:53.996Z,1100
2017-05-30T19:30:56.387Z,1230
2017-05-30T19:31:58.967Z,1520
2017-05-30T19:33:01.361Z,1270
2017-05-30T19:34:03.728Z,1300
2017-05-30T19:35:06.680Z,1430
2017-05-30T19:36:09.068Z,1940
2017-05-30T19:37:11.447Z,2215
2017-05-30T19:38:13.824Z,1720
2017-05-30T19:39:16.193Z,1610
2017-05-30T19:40:19.176Z,1020
2017-05-30T19:41:21.542Z,915
2017-05-30T19:42:23.921Z,970
2017-05-30T19:43:26.490Z,1050
2017-05-30T19:44:28.876Z,1095
2017-05-30T19:45:34.942Z,1595
2017-05-30T19:46:37.347Z,1695
2017-05-30T19:47:39.724Z,1620
2017-05-30T19:48:42.090Z,1520
2017-05-30T19:49:44.494Z,1540
2017-05-30T19:50:47.638Z,1685
2017-05-30T19:51:50.018Z,1640
2017-05-30T19:52:52.401Z,1335
2017-05-30T19:53:54.796Z,1300
2017-05-30T19:54:57.199Z,1720
2017-05-30T19:56:00.132Z,3760
2017-05-30T19:57:02.508Z,2260
2017-05-30T19:58:04.937Z,1835
2017-05-30T19:59:07.265Z,2410
2017-05-30T20:00:09.651Z,2750
2017-05-30T20:01:12.751Z,2965
2017-05-30T20:02:15.021Z,2850
2017-05-30T20:03:17.391Z,2700
2017-05-30T20:04:19.987Z,2365
2017-05-30T20:05:22.376Z,2185
2017-05-30T20:06:25.315Z,3470
2017-05-30T20:07:27.711Z,2415
2017-05-30T20:08:30.129Z,2565
2017-05-30T20:09:32.709Z,2905
2017-05-30T20:10:35.095Z,3270
2017-05-30T20:11:38.181Z,1555
2017-05-30T20:12:40.551Z,1560
2017-05-30T20:13:43.026Z,2065
2017-05-30T20:14:45.363Z,1645
2017-05-30T20:15:47.761Z,1625
2017-05-30T20:16:50.679Z,1740
2017-05-30T20:17:53.070Z,2615
2017-05-30T20:18:55.460Z,1430
2017-05-30T20:19:57.815Z,1175
2017-05-30T20:21:00.207Z,1985
2017-05-30T20:22:03.224Z,2230
2017-05-30T20:23:05.658Z,1560
2017-05-30T20:24:07.952Z,1335
2017-05-30T20:25:10.335Z,1445
2017-05-30T20:26:12.708Z,1440
2017-05-30T20:27:15.672Z,1915
2017-05-30T20:28:18.255Z,1965
2017-05-30T20:29:20.701Z,1950
2017-05-30T20:30:22.968Z,1835
2017-05-30T20:31:25.628Z,1815
2017-05-30T20:32:28.580Z,2360
2017-05-30T20:33:30.938Z,1810
2017-05-30T20:34:33.333Z,1860
2017-05-30T20:35:35.691Z,3210
2017-05-30T20:36:38.374Z,2175
2017-05-30T20:37:41.615Z,3575
2017-05-30T20:38:43.941Z,2110
2017-05-30T20:39:46.428Z,2295
2017-05-30T20:40:48.917Z,2330
2017-05-30T20:41:51.296Z,2300
2017-05-30T20:42:54.356Z,1815
2017-05-30T20:43:57.199Z,2350
2017-05-30T20:44:59.302Z,2830
2017-05-30T20:46:01.639Z,1170
2017-05-30T20:47:04.125Z,1825
2017-05-30T20:48:07.422Z,1095
2017-05-30T20:49:09.783Z,1495
2017-05-30T20:50:12.127Z,3395
2017-05-30T20:51:14.489Z,3060
2017-05-30T20:52:16.869Z,3225
2017-05-30T20:53:21.995Z,3395
2017-05-30T20:54:24.379Z,2005
2017-05-30T20:55:26.760Z,2040
2017-05-30T20:56:29.146Z,860
2017-05-30T20:57:31.543Z,1025
2017-05-30T20:58:34.464Z,3300
2017-05-30T20:59:36.907Z,1245
2017-05-30T21:00:39.254Z,945
2017-05-30T21:01:41.698Z,1135
2017-05-30T21:02:44.011Z,3340
2017-05-30T21:03:47.149Z,2885
2017-05-30T21:04:49.532Z,2585
2017-05-30T21:05:51.922Z,710
2017-05-30T21:06:54.325Z,780
2017-05-30T21:07:56.770Z,1755
2017-05-30T21:08:59.863Z,3300
2017-05-30T21:10:02.357Z,1475
2017-05-30T21:11:04.619Z,1335
2017-05-30T21:12:07.016Z,1070
2017-05-30T21:13:09.435Z,1230
2017-05-30T21:14:12.859Z,3060
2017-05-30T21:15:15.262Z,1535
2017-05-30T21:16:17.631Z,2560
2017-05-30T21:17:20.062Z,1340
2017-05-30T21:18:22.430Z,3065
2017-05-30T21:19:25.444Z,2690
2017-05-30T21:20:27.756Z,1550
2017-05-30T21:21:30.135Z,1030
2017-05-30T21:22:32.521Z,1200
2017-05-30T21:23:34.883Z,1380
2017-05-30T21:24:37.859Z,3700
2017-05-30T21:25:40.281Z,930
2017-05-30T21:26:42.625Z,1680
2017-05-30T21:27:44.974Z,1455
2017-05-30T21:28:47.629Z,1035
2017-05-30T21:29:50.636Z,770
2017-05-30T21:30:53.694Z,2120
2017-05-30T21:31:56.336Z,1085
2017-05-30T21:32:58.692Z,840
2017-05-30T21:34:01.162Z,925
2017-05-30T21:35:04.035Z,2855
2017-05-30T21:36:06.697Z,2990
2017-05-30T21:37:08.938Z,610
2017-05-30T21:38:11.351Z,1530
2017-05-30T21:39:13.778Z,1320
2017-05-30T21:40:16.643Z,760
2017-05-30T21:41:19.067Z,720
2017-05-30T21:42:21.616Z,900
2017-05-30T21:43:24.034Z,1065
2017-05-30T21:44:26.713Z,715
2017-05-30T21:45:30.019Z,710
2017-05-30T21:46:32.294Z,315
2017-05-30T21:47:34.901Z,260
2017-05-30T21:48:37.438Z,345
2017-05-30T21:49:39.788Z,370
2017-05-30T21:50:42.749Z,445
2017-05-30T21:51:45.661Z,515
2017-05-30T21:52:48.023Z,630
2017-05-30T21:53:50.356Z,780
2017-05-30T21:54:52.772Z,765
2017-05-30T21:55:56.294Z,855
2017-05-30T21:56:59.205Z,800
2017-05-30T21:58:01.484Z,830
2017-05-30T21:59:03.991Z,790
2017-05-30T22:00:06.273Z,705
2017-05-30T22:01:09.237Z,640
2017-05-30T22:02:11.537Z,615
2017-05-30T22:03:13.901Z,625
2017-05-30T22:04:16.290Z,670
2017-05-30T22:05:18.651Z,735
2017-05-30T22:06:21.813Z,815
2017-05-30T22:07:24.218Z,820
2017-05-30T22:08:26.513Z,835
2017-05-30T22:09:28.988Z,875
2017-05-30T22:10:31.429Z,955
2017-05-30T22:11:34.431Z,1110
2017-05-30T22:12:36.753Z,1290
2017-05-30T22:13:39.122Z,1235
2017-05-30T22:14:41.561Z,2275
2017-05-30T22:15:43.898Z,1935
2017-05-30T22:16:47.172Z,1615
2017-05-30T22:17:49.959Z,2050
2017-05-30T22:18:52.390Z,1590
2017-05-30T22:19:54.763Z,1855
2017-05-30T22:20:57.312Z,1940
2017-05-30T22:22:00.372Z,1885
2017-05-30T22:23:02.649Z,1750
2017-05-30T22:24:05.070Z,1425
2017-05-30T22:25:07.452Z,800
2017-05-30T22:26:09.865Z,1150
2017-05-30T22:27:13.024Z,1460
2017-05-30T22:28:15.439Z,1880
2017-05-30T22:29:17.909Z,1910
2017-05-30T22:30:21.470Z,1195
2017-05-30T22:31:23.281Z,1860
2017-05-30T22:32:26.381Z,1855
2017-05-30T22:33:28.696Z,1830
2017-05-30T22:34:31.089Z,1835
2017-05-30T22:35:33.460Z,1905
2017-05-30T22:36:35.845Z,1820
2017-05-30T22:37:38.964Z,1840
2017-05-30T22:38:41.648Z,1830
2017-05-30T22:39:43.875Z,1695
2017-05-30T22:40:46.240Z,1695
2017-05-30T22:41:49.528Z,1705
2017-05-30T22:42:53.438Z,1750
2017-05-30T22:43:55.513Z,1620
2017-05-30T22:44:57.971Z,1650
2017-05-30T22:46:01.727Z,875
2017-05-30T22:47:04.731Z,1645
2017-05-30T22:48:08.077Z,1665
2017-05-30T22:49:10.492Z,1250
2017-05-30T22:50:12.835Z,1485
2017-05-30T22:51:15.308Z,495
2017-05-30T22:52:17.682Z,1450
2017-05-30T22:53:20.693Z,1350
2017-05-30T22:54:23.014Z,1450
2017-05-30T22:55:25.392Z,565
2017-05-30T22:56:27.849Z,1430
2017-05-30T22:57:30.303Z,955
2017-05-30T22:58:33.550Z,1440
2017-05-30T22:59:35.849Z,1365
2017-05-30T23:00:38.293Z,1265
2017-05-30T23:01:40.686Z,1395
2017-05-30T23:02:43.212Z,1325
2017-05-30T23:03:46.218Z,1230
2017-05-30T23:04:48.800Z,1205
2017-05-30T23:05:52.720Z,1205
2017-05-30T23:06:54.865Z,1165
2017-05-30T23:07:57.761Z,1155
2017-05-30T23:09:01.098Z,1090
2017-05-30T23:10:03.457Z,1045
2017-05-30T23:11:05.839Z,1040
2017-05-30T23:12:08.254Z,1015
2017-05-30T23:13:11.095Z,1025
2017-05-30T23:14:14.076Z,355
2017-05-30T23:15:16.439Z,955
2017-05-30T23:16:18.810Z,890
2017-05-30T23:17:21.189Z,750
2017-05-30T23:18:23.621Z,425
2017-05-30T23:19:26.628Z,275
2017-05-30T23:20:28.976Z,260
2017-05-30T23:21:31.357Z,255
2017-05-30T23:22:34.311Z,270
2017-05-30T23:23:37.229Z,305
2017-05-30T23:24:40.191Z,260
2017-05-30T23:25:43.067Z,230
2017-05-30T23:26:45.957Z,200
2017-05-30T23:27:48.868Z,195
2017-05-30T23:28:51.722Z,200
2017-05-30T23:29:54.713Z,155
2017-05-30T23:30:57.096Z,175
2017-05-30T23:31:59.477Z,145
2017-05-30T23:33:01.865Z,125
2017-05-30T23:34:04.254Z,140
2017-05-30T23:35:07.246Z,120
2017-05-30T23:36:09.619Z,110
2017-05-30T23:37:12.008Z,120
2017-05-30T23:38:14.374Z,105
2017-05-30T23:39:16.760Z,100
2017-05-30T23:40:19.732Z,110
2017-05-30T23:41:22.111Z,75
2017-05-30T23:42:24.487Z,90
2017-05-30T23:43:26.870Z,75
2017-05-30T23:44:29.247Z,55
2017-05-30T23:45:32.214Z,50
2017-05-30T23:46:34.609Z,45
2017-05-30T23:47:36.894Z,40
2017-05-30T23:48:39.369Z,35
2017-05-30T23:49:41.755Z,40
2017-05-30T23:50:44.875Z,40
2017-05-30T23:51:47.267Z,45
2017-05-30T23:52:49.659Z,25
2017-05-30T23:53:52.024Z,20
2017-05-30T23:54:54.404Z,20
2017-05-30T23:55:57.376Z,20
2017-05-30T23:56:59.762Z,20
2017-05-30T23:58:02.141Z,10
2017-05-30T23:59:04.533Z,15
